Terminal Aerodrome Forecast
Issued by NWS

Home | Current Version | Previous Version | Text Only | Print | Product List | Glossary On
Versions: 1 2 3 4 5 6 7 8 9 10 11 12 13 14
000
FTAK31 PANC 240544
TAFAHO
TAF
PAHO 240544Z 2406/2506 20006KT P6SM VCSH SCT035 BKN050
     FM241100 11015G25KT 5SM -RA BKN025 WS020/14045KT
     FM241600 12018G28KT 2SM -RA BR BKN015 WS010/14050KT
     FM250000 20015G25KT 5SM -RA BR SCT012 BKN025
     FM250300 23015KT P6SM VCSH SCT030 BKN050=

USA.gov is the U.S. government's official web portal to all federal, state and local government web resources and services.